Smyer, TX (79367)

9:08 AM CDT on August 20, 2014 (GMT -0500)
South Smyer | Change Station
CLOSE
Current Station
Personal Weather Station
Location: Smyer, TX
Elevation: 3366 ft
Nearby Weather Stations

Elev 3366 ft 33.57 °N, 102.16 °W | Updated 15 seconds ago

Partly Cloudy
Partly Cloudy
74.3 °F
Feels Like 75 °F
N
5.8
Wind Variable Wind from SSE
Gusts 9.8 mph

Today
High -- | Low -- °F
--% Chance of Precip.
Yesterday
High -- | Low -- °F
Precip. -- in
7:14 AM 8:29 PM
Waning Crescent, 21% visible
Pressure 29.80 in
Visibility 10.0 miles
Clouds Few 10000 ft
Few 26000 ft
Heat Index 75 °F
Dew Point 67 °F
Humidity 78%
Rainfall 0.00 in
Snow Depth Not available.
UV 1 out of 12
Pollen 7.30 out of 12
Air Quality Not available.
Flu Activity Not available.
METAR KLBB 201353Z 18013KT 10SM FEW100 FEW260 23/17 A2996 RMK AO2 SLP089 FU DRFTG OVR AP T02330172

More Conditions Fewer Conditions

Pressure 29.80 in
Visibility 10.0 miles
Clouds Few 10000 ft
Few 26000 ft
Heat Index 75 °F
Dew Point 67 °F
Humidity 78%
Rainfall 0.00 in
Snow Depth Not available.
UV 1 out of 12
Pollen 7.30 out of 12
Air Quality Not available.
Flu Activity Not available.
METAR KLBB 201353Z 18013KT 10SM FEW100 FEW260 23/17 A2996 RMK AO2 SLP089 FU DRFTG OVR AP T02330172

More Conditions Fewer Conditions

10-Day Weather Forecast

Almanac

Astronomy

Aug. 20, 2014 Rise Set
Actual Time 7:14 AM CDT 8:29 PM CDT
Civil Twilight 6:48 AM CDT 8:54 PM CDT
Nautical Twilight 6:17 AM CDT 9:25 PM CDT
Astronomical Twilight 5:45 AM CDT 9:57 PM CDT
Moon 3:01 AM CDT 5:10 PM CDT
Length of Visible Light 14h 06m
Length of Day
13h 14m
Tomorrow will be 1m 54s shorter.
Waning Crescent, 21% of the Moon is Illuminated
Today
Waning Crescent
Aug 25
New
Sep 2
First Quarter
Sep 8
Full
Sep 15
Last Quarter

Today's Extremes

State Highs State Lows

Community

WunderPhotos

Upload Photos

1,745,639 photos uploaded!

Nearby

Snow Depth

Station Depth Elevation
No new snow has been reported.

Earthquake Activity

City Distance Mag. Time & Date
No recent earthquake activity has been reported nearby.
Minimum magnitude displayed is 2.5.

Coastal Water Temperatures

Place Temperature
No Stations Reporting

Nearby Weather Stations